Tutti
Golden Grove Airport (Golden Grove, Western Australia) YGGE Meteo
|
Golden Grove, Western Australia (YGGE)
Cielo sereno
Ventoso |
|
17 °C |
Previsione area Terminal YGGE
| Date | Time (AWST) | Flight Rules | Wind Dir. | Speed | Type | Height AGL (ft) | Visibility | Remarks | ||||||
|---|---|---|---|---|---|---|---|---|---|---|---|---|---|---|
Storico METAR YGGE recente
| Date | Time (AWST) | Flight Rules | Wind Dir. | Speed | Type | Height AGL (ft) | Visibility | Temp (°C) | Temp (°F) | Dew Point (°C) | Dew Point (°F) | Rel. Humid. | Pressure | Density Altitude | Remarks |
|---|---|---|---|---|---|---|---|---|---|---|---|---|---|---|---|
| 09-mag | 10:00 | VFR | 40° | 15 kt | 10000 meters | 17° | 62° | 2° | 35° | 36% | 1027 mb | 1.255 ft | |||
| 09-mag | 09:00 | VFR | 40° | 14 kt | 10000 meters | 16° | 60° | 3° | 37° | 42% | 1027 mb | 1.135 ft | |||
| 09-mag | 08:00 | VFR | 70° | 10 kt | 10000 meters | 13° | 55° | 3° | 37° | 51% | 1027 mb | 775 ft | |||
| 09-mag | 07:00 | VFR | 100° | 6 kt | 10000 meters | 9° | 48° | 2° | 35° | 61% | 1027 mb | 295 ft | |||
| 09-mag | 06:00 | VFR | 110° | 7 kt | 10000 meters | 10° | 50° | 2° | 35° | 57% | 1026 mb | 445 ft | |||
| 09-mag | 05:00 | VFR | 70° | 7 kt | 10000 meters | 11° | 51° | 2° | 35° | 54% | 1026 mb | 565 ft | |||
| 09-mag | 04:00 | VFR | 80° | 9 kt | 10000 meters | 11° | 51° | 2° | 35° | 54% | 1026 mb | 565 ft | |||
| 09-mag | 03:00 | VFR | 90° | 8 kt | 10000 meters | 11° | 51° | 2° | 35° | 54% | 1026 mb | 565 ft | |||
| 09-mag | 02:00 | VFR | 90° | 9 kt | 10000 meters | 13° | 55° | 2° | 35° | 47% | 1025 mb | 834 ft | |||
| 09-mag | 01:00 | VFR | 80° | 10 kt | 10000 meters | 15° | 59° | 2° | 35° | 41% | 1025 mb | 1.074 ft | |||
| 09-mag | 00:00 | VFR | 70° | 11 kt | 10000 meters | 15° | 59° | 2° | 35° | 41% | 1026 mb | 1.045 ft | |||
| 08-mag | 23:00 | VFR | 80° | 10 kt | 10000 meters | 16° | 60° | 3° | 37° | 42% | 1026 mb | 1.165 ft | |||
| 08-mag | 22:00 | VFR | 80° | 8 kt | 10000 meters | 16° | 60° | 3° | 37° | 42% | 1026 mb | 1.165 ft | |||
| 08-mag | 21:00 | VFR | 80° | 10 kt | 10000 meters | 17° | 62° | 4° | 39° | 42% | 1026 mb | 1.285 ft | |||
| 08-mag | 20:00 | VFR | 80° | 9 kt | 10000 meters | 18° | 64° | 3° | 37° | 37% | 1025 mb | 1.434 ft | |||
| 08-mag | 19:00 | VFR | 80° | 11 kt | 10000 meters | 19° | 66° | 3° | 37° | 34% | 1024 mb | 1.584 ft | |||
| 08-mag | 18:00 | VFR | 80° | 9 kt | 10000 meters | 20° | 68° | 3° | 37° | 32% | 1024 mb | 1.704 ft | |||
| 08-mag | 17:00 | VFR | 80° | 12 kt | 10000 meters | 22° | 71° | 3° | 37° | 29% | 1024 mb | 1.944 ft | |||
| 08-mag | 16:00 | VFR | 90° | 13 kt | 10000 meters | 22° | 71° | 3° | 37° | 29% | 1024 mb | 1.944 ft | |||
| 08-mag | 15:00 | VFR | 80° | 14 kt | 10000 meters | 22° | 71° | 3° | 37° | 29% | 1024 mb | 1.944 ft | |||
| 08-mag | 14:00 | VFR | 70° | 14 kt | 10000 meters | 22° | 71° | 4° | 39° | 31% | 1024 mb | 1.944 ft | |||
| 08-mag | 13:00 | VFR | 50° | 15 kt | 10000 meters | 21° | 69° | 5° | 41° | 35% | 1025 mb | 1.794 ft | |||
| 08-mag | 12:00 | VFR | 50° | 14 kt | 10000 meters | 21° | 69° | 5° | 41° | 35% | 1026 mb | 1.765 ft | |||
| 08-mag | 11:00 | VFR | 50° | 13 kt | 10000 meters | 20° | 68° | 6° | 42° | 40% | 1027 mb | 1.615 ft |
Accedi
| Il tuo browser non è supportato. fai l'upgrade del tuo browser |
